sensor_id;sensor_type;location;lat;lon;timestamp;P1;durP1;ratioP1;P2;durP2;ratioP2
45522;SDS011;31254;51.680;5.394;2023-05-14T00:02:16;16.95;;;10.48;;
45522;SDS011;31254;51.680;5.394;2023-05-14T00:04:45;13.40;;;10.80;;
45522;SDS011;31254;51.680;5.394;2023-05-14T00:07:12;13.48;;;10.18;;
45522;SDS011;31254;51.680;5.394;2023-05-14T00:09:38;16.63;;;10.38;;
45522;SDS011;31254;51.680;5.394;2023-05-14T00:12:05;13.20;;;10.48;;
45522;SDS011;31254;51.680;5.394;2023-05-14T00:14:35;14.48;;;10.93;;
45522;SDS011;31254;51.680;5.394;2023-05-14T00:17:04;18.65;;;11.55;;
45522;SDS011;31254;51.680;5.394;2023-05-14T00:19:34;17.38;;;11.77;;
45522;SDS011;31254;51.680;5.394;2023-05-14T00:22:01;12.95;;;10.93;;
45522;SDS011;31254;51.680;5.394;2023-05-14T00:24:28;20.27;;;11.85;;
45522;SDS011;31254;51.680;5.394;2023-05-14T00:26:54;19.50;;;12.25;;
45522;SDS011;31254;51.680;5.394;2023-05-14T00:29:21;20.30;;;11.65;;
45522;SDS011;31254;51.680;5.394;2023-05-14T00:31:48;16.63;;;11.57;;
45522;SDS011;31254;51.680;5.394;2023-05-14T00:34:15;20.05;;;12.68;;
45522;SDS011;31254;51.680;5.394;2023-05-14T00:36:44;16.55;;;12.80;;
45522;SDS011;31254;51.680;5.394;2023-05-14T00:39:11;20.13;;;12.10;;
45522;SDS011;31254;51.680;5.394;2023-05-14T00:41:38;20.90;;;13.00;;
45522;SDS011;31254;51.680;5.394;2023-05-14T00:44:07;16.92;;;12.95;;
45522;SDS011;31254;51.680;5.394;2023-05-14T00:46:34;16.58;;;11.88;;
45522;SDS011;31254;51.680;5.394;2023-05-14T00:49:03;19.35;;;13.35;;
45522;SDS011;31254;51.680;5.394;2023-05-14T00:51:30;16.73;;;13.10;;
45522;SDS011;31254;51.680;5.394;2023-05-14T00:53:59;16.73;;;12.45;;
45522;SDS011;31254;51.680;5.394;2023-05-14T00:56:26;19.50;;;13.38;;
45522;SDS011;31254;51.680;5.394;2023-05-14T00:58:53;21.52;;;13.40;;
45522;SDS011;31254;51.680;5.394;2023-05-14T01:01:20;18.08;;;12.75;;
45522;SDS011;31254;51.680;5.394;2023-05-14T01:03:47;18.25;;;13.25;;
45522;SDS011;31254;51.680;5.394;2023-05-14T01:11:30;17.85;;;13.10;;
45522;SDS011;31254;51.680;5.394;2023-05-14T01:16:52;17.65;;;13.20;;
45522;SDS011;31254;51.680;5.394;2023-05-14T01:22:05;19.65;;;13.80;;
45522;SDS011;31254;51.680;5.394;2023-05-14T01:24:32;20.48;;;13.95;;
45522;SDS011;31254;51.680;5.394;2023-05-14T01:27:00;20.90;;;14.05;;
45522;SDS011;31254;51.680;5.394;2023-05-14T01:29:33;17.42;;;14.02;;
45522;SDS011;31254;51.680;5.394;2023-05-14T01:32:05;18.15;;;13.77;;
45522;SDS011;31254;51.680;5.394;2023-05-14T01:34:35;22.40;;;14.50;;
45522;SDS011;31254;51.680;5.394;2023-05-14T01:37:04;22.50;;;14.82;;
45522;SDS011;31254;51.680;5.394;2023-05-14T01:39:34;24.45;;;13.63;;
45522;SDS011;31254;51.680;5.394;2023-05-14T01:42:03;18.50;;;14.55;;
45522;SDS011;31254;51.680;5.394;2023-05-14T01:44:31;23.77;;;15.13;;
45522;SDS011;31254;51.680;5.394;2023-05-14T01:46:58;22.08;;;15.73;;
45522;SDS011;31254;51.680;5.394;2023-05-14T01:49:25;25.48;;;14.85;;
45522;SDS011;31254;51.680;5.394;2023-05-14T01:51:52;24.92;;;14.80;;
45522;SDS011;31254;51.680;5.394;2023-05-14T01:54:19;18.67;;;14.88;;
45522;SDS011;31254;51.680;5.394;2023-05-14T01:56:46;27.17;;;14.93;;
45522;SDS011;31254;51.680;5.394;2023-05-14T01:59:13;23.15;;;14.90;;
45522;SDS011;31254;51.680;5.394;2023-05-14T02:01:40;22.15;;;14.70;;
45522;SDS011;31254;51.680;5.394;2023-05-14T02:04:07;20.58;;;15.25;;
45522;SDS011;31254;51.680;5.394;2023-05-14T02:06:34;20.48;;;15.70;;
45522;SDS011;31254;51.680;5.394;2023-05-14T02:09:02;20.98;;;16.35;;
45522;SDS011;31254;51.680;5.394;2023-05-14T02:11:30;25.90;;;16.10;;
45522;SDS011;31254;51.680;5.394;2023-05-14T02:13:57;22.30;;;15.60;;
45522;SDS011;31254;51.680;5.394;2023-05-14T02:16:24;22.48;;;16.67;;
45522;SDS011;31254;51.680;5.394;2023-05-14T02:18:51;21.35;;;16.35;;
45522;SDS011;31254;51.680;5.394;2023-05-14T02:21:21;20.92;;;15.55;;
45522;SDS011;31254;51.680;5.394;2023-05-14T02:23:50;25.83;;;15.43;;
45522;SDS011;31254;51.680;5.394;2023-05-14T02:26:17;24.40;;;15.65;;
45522;SDS011;31254;51.680;5.394;2023-05-14T02:28:47;24.63;;;15.65;;
45522;SDS011;31254;51.680;5.394;2023-05-14T02:31:14;20.92;;;15.68;;
45522;SDS011;31254;51.680;5.394;2023-05-14T02:33:45;26.83;;;16.85;;
45522;SDS011;31254;51.680;5.394;2023-05-14T02:36:13;24.75;;;16.85;;
45522;SDS011;31254;51.680;5.394;2023-05-14T02:38:43;22.73;;;16.60;;
45522;SDS011;31254;51.680;5.394;2023-05-14T02:41:10;24.90;;;16.40;;
45522;SDS011;31254;51.680;5.394;2023-05-14T02:43:37;25.15;;;16.13;;
45522;SDS011;31254;51.680;5.394;2023-05-14T02:46:04;24.90;;;17.25;;
45522;SDS011;31254;51.680;5.394;2023-05-14T02:48:34;25.10;;;16.98;;
45522;SDS011;31254;51.680;5.394;2023-05-14T02:51:01;30.95;;;17.27;;
45522;SDS011;31254;51.680;5.394;2023-05-14T02:53:28;27.20;;;18.27;;
45522;SDS011;31254;51.680;5.394;2023-05-14T02:55:55;27.38;;;18.00;;
45522;SDS011;31254;51.680;5.394;2023-05-14T02:58:22;25.73;;;17.83;;
45522;SDS011;31254;51.680;5.394;2023-05-14T03:00:54;28.70;;;17.40;;
45522;SDS011;31254;51.680;5.394;2023-05-14T03:03:21;29.70;;;17.67;;
45522;SDS011;31254;51.680;5.394;2023-05-14T03:05:49;27.02;;;17.95;;
45522;SDS011;31254;51.680;5.394;2023-05-14T03:08:16;25.80;;;17.45;;
45522;SDS011;31254;51.680;5.394;2023-05-14T03:10:43;25.58;;;17.73;;
45522;SDS011;31254;51.680;5.394;2023-05-14T03:13:10;27.13;;;18.70;;
45522;SDS011;31254;51.680;5.394;2023-05-14T03:15:37;28.10;;;18.30;;
45522;SDS011;31254;51.680;5.394;2023-05-14T03:18:03;25.45;;;17.17;;
45522;SDS011;31254;51.680;5.394;2023-05-14T03:20:32;23.85;;;17.60;;
45522;SDS011;31254;51.680;5.394;2023-05-14T03:22:58;28.42;;;17.52;;
45522;SDS011;31254;51.680;5.394;2023-05-14T03:25:28;24.35;;;17.35;;
45522;SDS011;31254;51.680;5.394;2023-05-14T03:27:55;31.23;;;18.02;;
45522;SDS011;31254;51.680;5.394;2023-05-14T03:30:24;29.08;;;17.77;;
45522;SDS011;31254;51.680;5.394;2023-05-14T03:32:52;24.23;;;17.70;;
45522;SDS011;31254;51.680;5.394;2023-05-14T03:35:19;27.17;;;17.85;;
45522;SDS011;31254;51.680;5.394;2023-05-14T03:37:46;29.08;;;16.90;;
45522;SDS011;31254;51.680;5.394;2023-05-14T03:40:13;25.15;;;17.42;;
45522;SDS011;31254;51.680;5.394;2023-05-14T03:42:40;22.55;;;16.52;;
45522;SDS011;31254;51.680;5.394;2023-05-14T03:45:10;24.23;;;16.73;;
45522;SDS011;31254;51.680;5.394;2023-05-14T03:47:37;27.15;;;17.13;;
45522;SDS011;31254;51.680;5.394;2023-05-14T03:50:07;24.38;;;17.25;;
45522;SDS011;31254;51.680;5.394;2023-05-14T03:52:34;24.38;;;17.92;;
45522;SDS011;31254;51.680;5.394;2023-05-14T03:55:02;26.08;;;17.13;;
45522;SDS011;31254;51.680;5.394;2023-05-14T03:57:29;22.77;;;16.48;;
45522;SDS011;31254;51.680;5.394;2023-05-14T03:59:56;25.27;;;16.75;;
45522;SDS011;31254;51.680;5.394;2023-05-14T04:02:23;22.48;;;15.43;;
45522;SDS011;31254;51.680;5.394;2023-05-14T04:04:55;22.63;;;16.52;;
45522;SDS011;31254;51.680;5.394;2023-05-14T04:07:22;27.65;;;17.08;;
45522;SDS011;31254;51.680;5.394;2023-05-14T04:09:50;25.80;;;16.77;;
45522;SDS011;31254;51.680;5.394;2023-05-14T04:12:17;23.38;;;16.45;;
45522;SDS011;31254;51.680;5.394;2023-05-14T04:14:44;23.00;;;15.18;;
45522;SDS011;31254;51.680;5.394;2023-05-14T04:17:16;25.15;;;14.93;;
45522;SDS011;31254;51.680;5.394;2023-05-14T04:19:43;23.15;;;15.90;;
45522;SDS011;31254;51.680;5.394;2023-05-14T04:22:12;23.45;;;15.82;;
45522;SDS011;31254;51.680;5.394;2023-05-14T04:24:39;26.58;;;14.55;;
45522;SDS011;31254;51.680;5.394;2023-05-14T04:27:09;28.08;;;16.05;;
45522;SDS011;31254;51.680;5.394;2023-05-14T04:29:39;24.13;;;15.57;;
45522;SDS011;31254;51.680;5.394;2023-05-14T04:32:06;24.00;;;15.02;;
45522;SDS011;31254;51.680;5.394;2023-05-14T04:34:33;22.77;;;15.27;;
45522;SDS011;31254;51.680;5.394;2023-05-14T04:37:00;26.05;;;14.82;;
45522;SDS011;31254;51.680;5.394;2023-05-14T04:39:28;23.80;;;14.85;;
45522;SDS011;31254;51.680;5.394;2023-05-14T04:41:57;23.77;;;15.15;;
45522;SDS011;31254;51.680;5.394;2023-05-14T04:44:24;23.33;;;16.02;;
45522;SDS011;31254;51.680;5.394;2023-05-14T04:46:51;26.25;;;15.13;;
45522;SDS011;31254;51.680;5.394;2023-05-14T04:49:18;24.50;;;14.57;;
45522;SDS011;31254;51.680;5.394;2023-05-14T04:51:47;24.48;;;15.13;;
45522;SDS011;31254;51.680;5.394;2023-05-14T04:54:14;23.38;;;14.50;;
45522;SDS011;31254;51.680;5.394;2023-05-14T04:56:41;23.98;;;14.80;;
45522;SDS011;31254;51.680;5.394;2023-05-14T04:59:08;21.08;;;14.32;;
45522;SDS011;31254;51.680;5.394;2023-05-14T05:01:38;21.85;;;13.20;;
45522;SDS011;31254;51.680;5.394;2023-05-14T05:04:05;22.05;;;13.70;;
45522;SDS011;31254;51.680;5.394;2023-05-14T05:06:32;22.08;;;13.32;;
45522;SDS011;31254;51.680;5.394;2023-05-14T05:08:59;20.83;;;13.63;;
45522;SDS011;31254;51.680;5.394;2023-05-14T05:11:27;23.63;;;13.43;;
45522;SDS011;31254;51.680;5.394;2023-05-14T05:13:54;22.40;;;12.82;;
45522;SDS011;31254;51.680;5.394;2023-05-14T05:16:21;19.10;;;12.63;;
45522;SDS011;31254;51.680;5.394;2023-05-14T05:18:51;19.98;;;12.77;;
45522;SDS011;31254;51.680;5.394;2023-05-14T05:21:18;20.02;;;12.30;;
45522;SDS011;31254;51.680;5.394;2023-05-14T05:23:47;23.63;;;12.25;;
45522;SDS011;31254;51.680;5.394;2023-05-14T05:26:14;21.15;;;12.27;;
45522;SDS011;31254;51.680;5.394;2023-05-14T05:28:41;16.63;;;11.60;;
45522;SDS011;31254;51.680;5.394;2023-05-14T05:31:10;20.27;;;12.43;;
45522;SDS011;31254;51.680;5.394;2023-05-14T05:33:37;17.70;;;12.68;;
45522;SDS011;31254;51.680;5.394;2023-05-14T05:36:05;20.85;;;12.35;;
45522;SDS011;31254;51.680;5.394;2023-05-14T05:38:35;23.33;;;13.25;;
45522;SDS011;31254;51.680;5.394;2023-05-14T05:41:02;23.58;;;13.57;;
45522;SDS011;31254;51.680;5.394;2023-05-14T05:43:29;21.92;;;11.55;;
45522;SDS011;31254;51.680;5.394;2023-05-14T05:45:56;20.67;;;13.10;;
45522;SDS011;31254;51.680;5.394;2023-05-14T05:48:23;21.63;;;12.52;;
45522;SDS011;31254;51.680;5.394;2023-05-14T05:50:50;21.60;;;13.40;;
45522;SDS011;31254;51.680;5.394;2023-05-14T05:53:20;19.50;;;13.32;;
45522;SDS011;31254;51.680;5.394;2023-05-14T05:55:49;19.90;;;12.00;;
45522;SDS011;31254;51.680;5.394;2023-05-14T05:58:17;20.73;;;12.13;;
45522;SDS011;31254;51.680;5.394;2023-05-14T06:00:45;19.90;;;12.57;;
45522;SDS011;31254;51.680;5.394;2023-05-14T06:03:12;19.85;;;12.70;;
45522;SDS011;31254;51.680;5.394;2023-05-14T06:05:42;15.43;;;11.68;;
45522;SDS011;31254;51.680;5.394;2023-05-14T06:08:09;22.73;;;11.73;;
45522;SDS011;31254;51.680;5.394;2023-05-14T06:10:36;16.75;;;12.52;;
45522;SDS011;31254;51.680;5.394;2023-05-14T06:13:03;18.38;;;12.80;;
45522;SDS011;31254;51.680;5.394;2023-05-14T06:15:30;19.95;;;12.68;;
45522;SDS011;31254;51.680;5.394;2023-05-14T06:17:57;21.33;;;13.18;;
45522;SDS011;31254;51.680;5.394;2023-05-14T06:20:24;18.45;;;13.50;;
45522;SDS011;31254;51.680;5.394;2023-05-14T06:22:51;16.58;;;12.30;;
45522;SDS011;31254;51.680;5.394;2023-05-14T06:25:21;22.05;;;13.20;;
45522;SDS011;31254;51.680;5.394;2023-05-14T06:27:48;17.15;;;12.85;;
45522;SDS011;31254;51.680;5.394;2023-05-14T06:30:14;23.50;;;12.95;;
45522;SDS011;31254;51.680;5.394;2023-05-14T06:32:41;20.60;;;12.88;;
45522;SDS011;31254;51.680;5.394;2023-05-14T06:35:08;20.40;;;14.07;;
45522;SDS011;31254;51.680;5.394;2023-05-14T06:37:37;21.77;;;14.10;;
45522;SDS011;31254;51.680;5.394;2023-05-14T06:40:04;17.25;;;12.85;;
45522;SDS011;31254;51.680;5.394;2023-05-14T06:42:31;21.45;;;11.82;;
45522;SDS011;31254;51.680;5.394;2023-05-14T06:44:58;16.30;;;11.88;;
45522;SDS011;31254;51.680;5.394;2023-05-14T06:47:25;18.30;;;12.35;;
45522;SDS011;31254;51.680;5.394;2023-05-14T06:49:54;19.35;;;11.63;;
45522;SDS011;31254;51.680;5.394;2023-05-14T06:52:23;21.10;;;12.25;;
45522;SDS011;31254;51.680;5.394;2023-05-14T06:54:51;18.15;;;11.55;;
45522;SDS011;31254;51.680;5.394;2023-05-14T06:57:18;14.75;;;10.68;;
45522;SDS011;31254;51.680;5.394;2023-05-14T06:59:44;17.70;;;12.25;;
45522;SDS011;31254;51.680;5.394;2023-05-14T07:02:11;17.55;;;12.60;;
45522;SDS011;31254;51.680;5.394;2023-05-14T07:04:37;18.92;;;11.82;;
45522;SDS011;31254;51.680;5.394;2023-05-14T07:07:07;15.23;;;11.07;;
45522;SDS011;31254;51.680;5.394;2023-05-14T07:09:35;19.05;;;11.38;;
45522;SDS011;31254;51.680;5.394;2023-05-14T07:12:02;18.27;;;10.95;;
45522;SDS011;31254;51.680;5.394;2023-05-14T07:14:29;18.15;;;11.68;;
45522;SDS011;31254;51.680;5.394;2023-05-14T07:16:58;14.95;;;11.00;;
45522;SDS011;31254;51.680;5.394;2023-05-14T07:19:25;16.65;;;11.80;;
45522;SDS011;31254;51.680;5.394;2023-05-14T07:21:55;18.85;;;11.50;;
45522;SDS011;31254;51.680;5.394;2023-05-14T07:24:24;17.10;;;11.82;;
45522;SDS011;31254;51.680;5.394;2023-05-14T07:26:51;15.75;;;11.38;;
45522;SDS011;31254;51.680;5.394;2023-05-14T07:29:22;16.05;;;10.77;;
45522;SDS011;31254;51.680;5.394;2023-05-14T07:31:50;18.60;;;11.27;;
45522;SDS011;31254;51.680;5.394;2023-05-14T07:34:18;18.50;;;11.35;;
45522;SDS011;31254;51.680;5.394;2023-05-14T07:36:47;14.52;;;10.57;;
45522;SDS011;31254;51.680;5.394;2023-05-14T07:39:16;17.05;;;10.95;;
45522;SDS011;31254;51.680;5.394;2023-05-14T07:41:42;16.67;;;11.02;;
45522;SDS011;31254;51.680;5.394;2023-05-14T07:44:09;22.20;;;10.60;;
45522;SDS011;31254;51.680;5.394;2023-05-14T07:46:36;18.00;;;10.90;;
45522;SDS011;31254;51.680;5.394;2023-05-14T07:49:02;12.90;;;9.82;;
45522;SDS011;31254;51.680;5.394;2023-05-14T07:51:31;14.77;;;9.77;;
45522;SDS011;31254;51.680;5.394;2023-05-14T07:53:58;14.77;;;10.57;;
45522;SDS011;31254;51.680;5.394;2023-05-14T07:56:26;13.70;;;9.60;;
45522;SDS011;31254;51.680;5.394;2023-05-14T07:58:55;14.40;;;9.85;;
45522;SDS011;31254;51.680;5.394;2023-05-14T08:01:22;12.52;;;9.57;;
45522;SDS011;31254;51.680;5.394;2023-05-14T08:03:51;15.88;;;9.50;;
45522;SDS011;31254;51.680;5.394;2023-05-14T08:06:18;13.32;;;9.60;;
45522;SDS011;31254;51.680;5.394;2023-05-14T08:08:48;16.35;;;10.68;;
45522;SDS011;31254;51.680;5.394;2023-05-14T08:11:17;16.17;;;9.15;;
45522;SDS011;31254;51.680;5.394;2023-05-14T08:13:43;16.00;;;9.95;;
45522;SDS011;31254;51.680;5.394;2023-05-14T08:16:10;16.23;;;9.23;;
45522;SDS011;31254;51.680;5.394;2023-05-14T08:18:39;13.15;;;9.15;;
45522;SDS011;31254;51.680;5.394;2023-05-14T08:21:08;15.57;;;9.93;;
45522;SDS011;31254;51.680;5.394;2023-05-14T08:23:35;16.92;;;9.27;;
45522;SDS011;31254;51.680;5.394;2023-05-14T08:26:02;17.25;;;9.90;;
45522;SDS011;31254;51.680;5.394;2023-05-14T08:28:28;16.10;;;9.10;;
45522;SDS011;31254;51.680;5.394;2023-05-14T08:30:56;15.05;;;9.32;;
45522;SDS011;31254;51.680;5.394;2023-05-14T08:33:25;11.48;;;8.50;;
45522;SDS011;31254;51.680;5.394;2023-05-14T08:35:51;14.73;;;9.05;;
45522;SDS011;31254;51.680;5.394;2023-05-14T08:38:19;13.55;;;8.77;;
45522;SDS011;31254;51.680;5.394;2023-05-14T08:40:46;13.77;;;8.60;;
45522;SDS011;31254;51.680;5.394;2023-05-14T08:43:15;14.20;;;8.52;;
45522;SDS011;31254;51.680;5.394;2023-05-14T08:45:48;13.27;;;8.23;;
45522;SDS011;31254;51.680;5.394;2023-05-14T08:48:18;12.88;;;7.78;;
45522;SDS011;31254;51.680;5.394;2023-05-14T08:50:48;11.20;;;8.30;;
45522;SDS011;31254;51.680;5.394;2023-05-14T08:53:14;11.68;;;8.10;;
45522;SDS011;31254;51.680;5.394;2023-05-14T08:55:41;15.65;;;7.38;;
45522;SDS011;31254;51.680;5.394;2023-05-14T08:58:09;11.23;;;7.75;;
45522;SDS011;31254;51.680;5.394;2023-05-14T09:00:36;12.48;;;8.20;;
45522;SDS011;31254;51.680;5.394;2023-05-14T09:03:03;14.32;;;8.40;;
45522;SDS011;31254;51.680;5.394;2023-05-14T09:05:33;15.10;;;8.05;;
45522;SDS011;31254;51.680;5.394;2023-05-14T09:08:00;13.95;;;7.85;;
45522;SDS011;31254;51.680;5.394;2023-05-14T09:10:27;14.30;;;7.22;;
45522;SDS011;31254;51.680;5.394;2023-05-14T09:12:56;12.52;;;8.27;;
45522;SDS011;31254;51.680;5.394;2023-05-14T09:15:22;13.65;;;8.10;;
45522;SDS011;31254;51.680;5.394;2023-05-14T09:17:52;15.82;;;8.40;;
45522;SDS011;31254;51.680;5.394;2023-05-14T09:20:22;13.52;;;8.10;;
45522;SDS011;31254;51.680;5.394;2023-05-14T09:22:53;11.82;;;7.70;;
45522;SDS011;31254;51.680;5.394;2023-05-14T09:25:24;12.52;;;8.02;;
45522;SDS011;31254;51.680;5.394;2023-05-14T09:27:53;11.02;;;7.55;;
45522;SDS011;31254;51.680;5.394;2023-05-14T09:30:23;12.95;;;7.55;;
45522;SDS011;31254;51.680;5.394;2023-05-14T09:32:53;12.75;;;7.20;;
45522;SDS011;31254;51.680;5.394;2023-05-14T09:35:21;11.38;;;7.75;;
45522;SDS011;31254;51.680;5.394;2023-05-14T09:37:50;16.63;;;7.65;;
45522;SDS011;31254;51.680;5.394;2023-05-14T09:40:20;14.35;;;7.50;;
45522;SDS011;31254;51.680;5.394;2023-05-14T09:42:49;13.07;;;7.55;;
45522;SDS011;31254;51.680;5.394;2023-05-14T09:45:16;10.95;;;7.60;;
45522;SDS011;31254;51.680;5.394;2023-05-14T09:47:42;14.73;;;7.03;;
45522;SDS011;31254;51.680;5.394;2023-05-14T09:50:10;13.30;;;7.97;;
45522;SDS011;31254;51.680;5.394;2023-05-14T09:52:37;13.52;;;6.85;;
45522;SDS011;31254;51.680;5.394;2023-05-14T09:55:10;11.10;;;7.50;;
45522;SDS011;31254;51.680;5.394;2023-05-14T09:57:39;12.50;;;7.50;;
45522;SDS011;31254;51.680;5.394;2023-05-14T10:00:06;13.45;;;7.82;;
45522;SDS011;31254;51.680;5.394;2023-05-14T10:02:35;11.63;;;6.80;;
45522;SDS011;31254;51.680;5.394;2023-05-14T10:05:04;9.27;;;7.03;;
45522;SDS011;31254;51.680;5.394;2023-05-14T10:07:47;12.15;;;7.10;;
45522;SDS011;31254;51.680;5.394;2023-05-14T10:10:17;10.30;;;7.03;;
45522;SDS011;31254;51.680;5.394;2023-05-14T10:12:50;13.85;;;6.97;;
45522;SDS011;31254;51.680;5.394;2023-05-14T10:15:42;10.13;;;6.75;;
45522;SDS011;31254;51.680;5.394;2023-05-14T10:18:21;9.95;;;6.95;;
45522;SDS011;31254;51.680;5.394;2023-05-14T10:20:52;14.80;;;7.65;;
45522;SDS011;31254;51.680;5.394;2023-05-14T10:23:31;9.75;;;6.85;;
45522;SDS011;31254;51.680;5.394;2023-05-14T10:25:59;10.90;;;7.63;;
45522;SDS011;31254;51.680;5.394;2023-05-14T10:28:26;14.00;;;7.05;;
45522;SDS011;31254;51.680;5.394;2023-05-14T10:30:53;10.80;;;6.40;;
45522;SDS011;31254;51.680;5.394;2023-05-14T10:33:20;10.07;;;5.97;;
45522;SDS011;31254;51.680;5.394;2023-05-14T10:38:29;14.50;;;7.57;;
45522;SDS011;31254;51.680;5.394;2023-05-14T10:41:06;15.40;;;7.63;;
45522;SDS011;31254;51.680;5.394;2023-05-14T10:43:37;12.30;;;6.60;;
45522;SDS011;31254;51.680;5.394;2023-05-14T10:46:05;9.80;;;6.57;;
45522;SDS011;31254;51.680;5.394;2023-05-14T10:48:33;10.52;;;5.82;;
45522;SDS011;31254;51.680;5.394;2023-05-14T10:51:05;7.97;;;5.07;;
45522;SDS011;31254;51.680;5.394;2023-05-14T10:53:38;9.15;;;5.07;;
45522;SDS011;31254;51.680;5.394;2023-05-14T10:56:10;8.40;;;4.78;;
45522;SDS011;31254;51.680;5.394;2023-05-14T10:58:38;9.50;;;5.40;;
45522;SDS011;31254;51.680;5.394;2023-05-14T11:01:12;10.50;;;6.20;;
45522;SDS011;31254;51.680;5.394;2023-05-14T11:03:43;7.63;;;6.07;;
45522;SDS011;31254;51.680;5.394;2023-05-14T11:06:12;8.35;;;6.43;;
45522;SDS011;31254;51.680;5.394;2023-05-14T11:08:40;9.57;;;6.40;;
45522;SDS011;31254;51.680;5.394;2023-05-14T11:11:07;10.63;;;5.72;;
45522;SDS011;31254;51.680;5.394;2023-05-14T11:13:35;8.40;;;5.70;;
45522;SDS011;31254;51.680;5.394;2023-05-14T11:16:04;6.47;;;4.90;;
45522;SDS011;31254;51.680;5.394;2023-05-14T11:18:47;12.68;;;4.80;;
45522;SDS011;31254;51.680;5.394;2023-05-14T11:21:18;7.28;;;5.15;;
45522;SDS011;31254;51.680;5.394;2023-05-14T11:23:45;9.55;;;5.15;;
45522;SDS011;31254;51.680;5.394;2023-05-14T11:26:12;12.82;;;5.57;;
45522;SDS011;31254;51.680;5.394;2023-05-14T11:28:39;8.45;;;5.10;;
45522;SDS011;31254;51.680;5.394;2023-05-14T11:31:09;8.80;;;5.28;;
45522;SDS011;31254;51.680;5.394;2023-05-14T11:33:36;9.45;;;5.72;;
45522;SDS011;31254;51.680;5.394;2023-05-14T11:36:03;7.63;;;5.43;;
45522;SDS011;31254;51.680;5.394;2023-05-14T11:38:30;8.95;;;5.20;;
45522;SDS011;31254;51.680;5.394;2023-05-14T11:40:57;9.43;;;6.18;;
45522;SDS011;31254;51.680;5.394;2023-05-14T11:43:24;8.35;;;5.20;;
45522;SDS011;31254;51.680;5.394;2023-05-14T11:45:54;7.65;;;4.72;;
45522;SDS011;31254;51.680;5.394;2023-05-14T11:48:22;5.20;;;3.47;;
45522;SDS011;31254;51.680;5.394;2023-05-14T11:50:50;9.82;;;4.07;;
45522;SDS011;31254;51.680;5.394;2023-05-14T11:53:18;7.35;;;4.03;;
45522;SDS011;31254;51.680;5.394;2023-05-14T11:55:55;8.45;;;5.32;;
45522;SDS011;31254;51.680;5.394;2023-05-14T11:58:23;8.00;;;4.38;;
45522;SDS011;31254;51.680;5.394;2023-05-14T12:00:50;8.98;;;4.00;;
45522;SDS011;31254;51.680;5.394;2023-05-14T12:03:21;6.53;;;4.05;;
45522;SDS011;31254;51.680;5.394;2023-05-14T12:08:26;5.97;;;3.80;;
45522;SDS011;31254;51.680;5.394;2023-05-14T12:10:59;8.07;;;4.00;;
45522;SDS011;31254;51.680;5.394;2023-05-14T12:13:27;6.25;;;3.42;;
45522;SDS011;31254;51.680;5.394;2023-05-14T12:15:56;6.57;;;3.10;;
45522;SDS011;31254;51.680;5.394;2023-05-14T12:18:24;10.13;;;4.30;;
45522;SDS011;31254;51.680;5.394;2023-05-14T12:20:53;5.18;;;3.17;;
45522;SDS011;31254;51.680;5.394;2023-05-14T12:23:28;9.68;;;3.00;;
45522;SDS011;31254;51.680;5.394;2023-05-14T12:26:05;7.25;;;3.40;;
45522;SDS011;31254;51.680;5.394;2023-05-14T12:28:34;8.63;;;3.45;;
45522;SDS011;31254;51.680;5.394;2023-05-14T12:31:04;5.00;;;3.40;;
45522;SDS011;31254;51.680;5.394;2023-05-14T12:33:33;7.00;;;4.55;;
45522;SDS011;31254;51.680;5.394;2023-05-14T12:36:02;7.22;;;3.63;;
45522;SDS011;31254;51.680;5.394;2023-05-14T12:38:47;5.40;;;3.28;;
45522;SDS011;31254;51.680;5.394;2023-05-14T12:41:17;7.82;;;3.67;;
45522;SDS011;31254;51.680;5.394;2023-05-14T12:43:44;7.10;;;3.67;;
45522;SDS011;31254;51.680;5.394;2023-05-14T12:46:13;7.28;;;3.80;;
45522;SDS011;31254;51.680;5.394;2023-05-14T12:48:41;5.47;;;3.63;;
45522;SDS011;31254;51.680;5.394;2023-05-14T12:51:10;8.85;;;3.80;;
45522;SDS011;31254;51.680;5.394;2023-05-14T12:53:37;7.90;;;4.00;;
45522;SDS011;31254;51.680;5.394;2023-05-14T12:56:04;9.07;;;3.80;;
45522;SDS011;31254;51.680;5.394;2023-05-14T12:58:31;7.63;;;3.55;;
45522;SDS011;31254;51.680;5.394;2023-05-14T13:00:58;6.45;;;3.78;;
45522;SDS011;31254;51.680;5.394;2023-05-14T13:03:25;5.65;;;3.50;;
45522;SDS011;31254;51.680;5.394;2023-05-14T13:05:52;8.68;;;3.63;;
45522;SDS011;31254;51.680;5.394;2023-05-14T13:08:22;7.90;;;3.97;;
45522;SDS011;31254;51.680;5.394;2023-05-14T13:10:52;7.68;;;4.30;;
45522;SDS011;31254;51.680;5.394;2023-05-14T13:13:19;9.45;;;4.45;;
45522;SDS011;31254;51.680;5.394;2023-05-14T13:15:47;9.05;;;4.22;;
45522;SDS011;31254;51.680;5.394;2023-05-14T13:18:14;8.55;;;3.90;;
45522;SDS011;31254;51.680;5.394;2023-05-14T13:20:41;14.15;;;4.22;;
45522;SDS011;31254;51.680;5.394;2023-05-14T13:23:08;7.00;;;4.30;;
45522;SDS011;31254;51.680;5.394;2023-05-14T13:25:35;11.48;;;3.70;;
45522;SDS011;31254;51.680;5.394;2023-05-14T13:28:01;5.03;;;3.53;;
45522;SDS011;31254;51.680;5.394;2023-05-14T13:30:28;7.13;;;3.70;;
45522;SDS011;31254;51.680;5.394;2023-05-14T13:32:55;6.35;;;3.90;;
45522;SDS011;31254;51.680;5.394;2023-05-14T13:35:24;6.80;;;4.47;;
45522;SDS011;31254;51.680;5.394;2023-05-14T13:37:51;6.55;;;3.67;;
45522;SDS011;31254;51.680;5.394;2023-05-14T13:40:18;9.30;;;4.07;;
45522;SDS011;31254;51.680;5.394;2023-05-14T13:42:44;5.85;;;3.47;;
45522;SDS011;31254;51.680;5.394;2023-05-14T13:45:13;8.20;;;3.88;;
45522;SDS011;31254;51.680;5.394;2023-05-14T13:47:40;8.95;;;4.30;;
45522;SDS011;31254;51.680;5.394;2023-05-14T13:50:07;6.18;;;3.58;;
45522;SDS011;31254;51.680;5.394;2023-05-14T13:52:36;6.82;;;3.08;;
45522;SDS011;31254;51.680;5.394;2023-05-14T13:55:04;6.57;;;3.42;;
45522;SDS011;31254;51.680;5.394;2023-05-14T13:57:31;6.05;;;3.38;;
45522;SDS011;31254;51.680;5.394;2023-05-14T13:59:58;4.50;;;2.88;;
45522;SDS011;31254;51.680;5.394;2023-05-14T14:02:24;8.90;;;3.63;;
45522;SDS011;31254;51.680;5.394;2023-05-14T14:04:51;7.53;;;3.42;;
45522;SDS011;31254;51.680;5.394;2023-05-14T14:07:18;10.45;;;3.30;;
45522;SDS011;31254;51.680;5.394;2023-05-14T14:09:44;10.63;;;3.35;;
45522;SDS011;31254;51.680;5.394;2023-05-14T14:12:11;7.00;;;2.97;;
45522;SDS011;31254;51.680;5.394;2023-05-14T14:14:38;5.15;;;3.05;;
45522;SDS011;31254;51.680;5.394;2023-05-14T14:17:06;7.53;;;3.47;;
45522;SDS011;31254;51.680;5.394;2023-05-14T14:19:34;6.57;;;3.22;;
45522;SDS011;31254;51.680;5.394;2023-05-14T14:22:06;6.93;;;3.40;;
45522;SDS011;31254;51.680;5.394;2023-05-14T14:24:32;7.85;;;3.95;;
45522;SDS011;31254;51.680;5.394;2023-05-14T14:26:59;11.15;;;4.47;;
45522;SDS011;31254;51.680;5.394;2023-05-14T14:29:28;6.72;;;3.53;;
45522;SDS011;31254;51.680;5.394;2023-05-14T14:31:56;8.75;;;3.40;;
45522;SDS011;31254;51.680;5.394;2023-05-14T14:34:22;7.65;;;3.58;;
45522;SDS011;31254;51.680;5.394;2023-05-14T14:36:49;6.35;;;4.22;;
45522;SDS011;31254;51.680;5.394;2023-05-14T14:39:16;9.60;;;4.20;;
45522;SDS011;31254;51.680;5.394;2023-05-14T14:41:42;9.25;;;3.50;;
45522;SDS011;31254;51.680;5.394;2023-05-14T14:44:09;6.43;;;3.20;;
45522;SDS011;31254;51.680;5.394;2023-05-14T14:46:41;5.35;;;3.47;;
45522;SDS011;31254;51.680;5.394;2023-05-14T14:49:08;10.70;;;3.47;;
45522;SDS011;31254;51.680;5.394;2023-05-14T14:51:35;6.82;;;3.28;;
45522;SDS011;31254;51.680;5.394;2023-05-14T14:54:01;6.82;;;3.50;;